Time;durP1;ratioP1;P1;durP2;ratioP2;P2;SDS_P1;SDS_P2;PMS_P1;PMS_P2;Temp;Humidity;BMP_temperature;BMP_pressure;BME280_temperature;BME280_humidity;BME280_pressure;Samples;Min_cycle;Max_cycle;Signal;HPM_P1;HPM_P2
2023/06/27 00:00:50;;;;;;;3.92;2.20;;;;;;;;;;5075522;28;20241;-53
2023/06/27 00:03:16;;;;;;;10.27;2.22;;;;;;;;;;5074426;28;20249;-54
2023/06/27 00:05:43;;;;;;;2.67;1.95;;;;;;;;;;5074915;28;20266;-53
2023/06/27 00:08:09;;;;;;;3.15;2.10;;;;;;;;;;5064485;28;20235;-54
2023/06/27 00:10:35;;;;;;;6.63;2.80;;;;;;;;;;5066745;28;20227;-54
2023/06/27 00:13:02;;;;;;;5.57;2.08;;;;;;;;;;5062521;28;20318;-53
2023/06/27 00:15:34;;;;;;;2.85;2.17;;;;;;;;;;5062880;28;20235;-53
2023/06/27 00:18:08;;;;;;;2.90;1.92;;;;;;;;;;5042629;28;20224;-53
2023/06/27 00:20:35;;;;;;;2.47;2.25;;;;;;;;;;5061496;28;20227;-53
2023/06/27 00:23:16;;;;;;;3.53;2.17;;;;;;;;;;5060333;28;20235;-52
2023/06/27 00:25:42;;;;;;;2.80;2.60;;;;;;;;;;5061872;28;20637;-53
2023/06/27 00:28:08;;;;;;;2.40;1.92;;;;;;;;;;5062964;28;20233;-55
2023/06/27 00:30:35;;;;;;;4.07;2.70;;;;;;;;;;5065652;28;20608;-54
2023/06/27 00:33:03;;;;;;;3.40;2.33;;;;;;;;;;5063313;28;20235;-53
2023/06/27 00:35:32;;;;;;;2.80;2.17;;;;;;;;;;5064182;28;20237;-53
2023/06/27 00:37:58;;;;;;;3.38;2.10;;;;;;;;;;5061468;28;20945;-53
2023/06/27 00:40:25;;;;;;;3.78;2.58;;;;;;;;;;5059711;28;20235;-54
2023/06/27 00:42:51;;;;;;;2.88;2.50;;;;;;;;;;5062087;28;20231;-53
2023/06/27 00:45:19;;;;;;;2.40;2.20;;;;;;;;;;5061916;28;20262;-53
2023/06/27 00:47:46;;;;;;;2.95;2.28;;;;;;;;;;5062482;28;20338;-53
2023/06/27 00:50:14;;;;;;;4.85;2.50;;;;;;;;;;5058212;28;20236;-52
2023/06/27 00:52:40;;;;;;;2.33;2.00;;;;;;;;;;5062822;28;20267;-54
2023/06/27 00:55:08;;;;;;;6.10;2.58;;;;;;;;;;5059843;28;20598;-54
2023/06/27 00:57:35;;;;;;;2.88;1.83;;;;;;;;;;5061224;28;20259;-53
2023/06/27 01:00:02;;;;;;;2.45;2.20;;;;;;;;;;5063307;28;20260;-53
2023/06/27 01:02:29;;;;;;;4.47;2.40;;;;;;;;;;5056516;28;20250;-53
2023/06/27 01:04:55;;;;;;;4.18;2.35;;;;;;;;;;5058910;28;20241;-54
2023/06/27 01:07:25;;;;;;;4.10;2.55;;;;;;;;;;5055181;28;20238;-52
2023/06/27 01:09:52;;;;;;;5.40;2.70;;;;;;;;;;5059679;28;20235;-53
2023/06/27 01:12:20;;;;;;;5.13;1.98;;;;;;;;;;5062921;28;20292;-53
2023/06/27 01:14:47;;;;;;;3.88;2.17;;;;;;;;;;5061467;28;20239;-53
2023/06/27 01:17:15;;;;;;;3.30;2.40;;;;;;;;;;5056231;28;20255;-54
2023/06/27 01:19:44;;;;;;;3.50;2.30;;;;;;;;;;5061746;28;20235;-52
2023/06/27 01:22:13;;;;;;;2.40;2.00;;;;;;;;;;5059530;28;20638;-53
2023/06/27 01:24:43;;;;;;;4.95;2.50;;;;;;;;;;5053275;28;20311;-52
2023/06/27 01:27:11;;;;;;;4.65;2.38;;;;;;;;;;5058219;28;20232;-54
2023/06/27 01:29:41;;;;;;;5.57;2.78;;;;;;;;;;5065379;28;20239;-53
2023/06/27 01:32:10;;;;;;;7.53;2.83;;;;;;;;;;5063231;28;20269;-53
2023/06/27 01:34:40;;;;;;;9.27;2.85;;;;;;;;;;5066695;28;20250;-55
2023/06/27 01:37:10;;;;;;;2.65;2.20;;;;;;;;;;5069638;28;20673;-54
2023/06/27 01:39:38;;;;;;;4.45;2.85;;;;;;;;;;5056897;28;20340;-56
2023/06/27 01:42:11;;;;;;;4.88;2.97;;;;;;;;;;5066512;28;20254;-52
2023/06/27 01:44:38;;;;;;;5.70;2.75;;;;;;;;;;5065455;28;21530;-53
2023/06/27 01:47:05;;;;;;;6.35;2.95;;;;;;;;;;5066555;28;20234;-53
2023/06/27 01:49:32;;;;;;;7.15;3.22;;;;;;;;;;5059016;28;20228;-52
2023/06/27 01:51:58;;;;;;;5.80;2.67;;;;;;;;;;5067846;28;20685;-52
2023/06/27 01:54:25;;;;;;;3.40;2.47;;;;;;;;;;5063317;28;20232;-52
2023/06/27 01:56:52;;;;;;;4.28;2.60;;;;;;;;;;5063113;28;20230;-55
2023/06/27 01:59:20;;;;;;;4.60;2.67;;;;;;;;;;5065487;28;20227;-52
2023/06/27 02:01:47;;;;;;;3.92;2.63;;;;;;;;;;5059813;28;20226;-53
2023/06/27 02:04:13;;;;;;;6.38;3.92;;;;;;;;;;5062135;28;20711;-53
2023/06/27 02:06:40;;;;;;;7.93;4.40;;;;;;;;;;5058137;28;20236;-54
2023/06/27 02:09:07;;;;;;;3.22;2.92;;;;;;;;;;5067673;28;20251;-59
2023/06/27 02:11:34;;;;;;;6.68;3.42;;;;;;;;;;5061556;28;20712;-54
2023/06/27 02:14:00;;;;;;;4.50;2.80;;;;;;;;;;5057241;28;20227;-53
2023/06/27 02:16:28;;;;;;;6.35;3.28;;;;;;;;;;5058880;28;20242;-52
2023/06/27 02:18:55;;;;;;;5.63;3.13;;;;;;;;;;5064249;28;20358;-52
2023/06/27 02:21:22;;;;;;;5.63;3.58;;;;;;;;;;5058828;28;20310;-52
2023/06/27 02:23:48;;;;;;;5.35;3.40;;;;;;;;;;5066317;28;20977;-52
2023/06/27 02:26:15;;;;;;;11.10;3.97;;;;;;;;;;5068282;28;20252;-54
2023/06/27 02:28:42;;;;;;;4.22;3.42;;;;;;;;;;5068967;28;20235;-53
2023/06/27 02:31:09;;;;;;;7.70;3.67;;;;;;;;;;5068097;28;20238;-54
2023/06/27 02:33:37;;;;;;;10.45;3.95;;;;;;;;;;5069239;28;20659;-53
2023/06/27 02:36:03;;;;;;;5.07;3.30;;;;;;;;;;5067430;28;20241;-53
2023/06/27 02:38:31;;;;;;;2.83;2.63;;;;;;;;;;5063797;28;20318;-53
2023/06/27 02:40:58;;;;;;;4.88;2.90;;;;;;;;;;5068278;28;20231;-51
2023/06/27 02:43:24;;;;;;;6.68;3.70;;;;;;;;;;5066998;28;20841;-52
2023/06/27 02:45:51;;;;;;;7.63;3.83;;;;;;;;;;5062866;28;20234;-53
2023/06/27 02:48:17;;;;;;;7.13;3.58;;;;;;;;;;5068678;28;20715;-52
2023/06/27 02:50:49;;;;;;;4.97;3.17;;;;;;;;;;5069203;28;20234;-53
2023/06/27 02:53:15;;;;;;;4.88;3.10;;;;;;;;;;5065862;28;20705;-53
2023/06/27 02:55:42;;;;;;;5.93;3.13;;;;;;;;;;5063824;28;20242;-52
2023/06/27 02:58:09;;;;;;;5.95;3.78;;;;;;;;;;5064337;28;20308;-53
2023/06/27 03:00:36;;;;;;;6.25;3.50;;;;;;;;;;5079784;28;20232;-53
2023/06/27 03:03:03;;;;;;;4.60;3.08;;;;;;;;;;5066282;28;20237;-52
2023/06/27 03:05:29;;;;;;;7.57;3.72;;;;;;;;;;5070925;28;20308;-52
2023/06/27 03:07:58;;;;;;;4.95;2.90;;;;;;;;;;5080863;28;20258;-53
2023/06/27 03:10:25;;;;;;;10.70;3.55;;;;;;;;;;5073449;28;20230;-54
2023/06/27 03:12:51;;;;;;;5.65;2.90;;;;;;;;;;5070731;28;20281;-54
2023/06/27 03:15:18;;;;;;;5.07;3.25;;;;;;;;;;5075249;28;20997;-53
2023/06/27 03:17:45;;;;;;;6.80;3.42;;;;;;;;;;5070105;28;20242;-56
2023/06/27 03:20:12;;;;;;;7.47;3.70;;;;;;;;;;5063697;28;20232;-56
2023/06/27 03:22:39;;;;;;;5.55;3.17;;;;;;;;;;5062833;28;20235;-52
2023/06/27 03:25:10;;;;;;;7.15;3.45;;;;;;;;;;5061997;28;20281;-52
2023/06/27 03:27:37;;;;;;;6.30;3.30;;;;;;;;;;5074931;28;20242;-54
2023/06/27 03:30:04;;;;;;;7.38;4.50;;;;;;;;;;5073517;28;20234;-53
2023/06/27 03:32:30;;;;;;;6.07;2.95;;;;;;;;;;5066405;28;20259;-53
2023/06/27 03:34:59;;;;;;;9.07;3.65;;;;;;;;;;5058229;28;20254;-52
2023/06/27 03:37:26;;;;;;;5.28;2.75;;;;;;;;;;5063544;28;20609;-53
2023/06/27 03:39:53;;;;;;;10.38;3.90;;;;;;;;;;5064155;28;20254;-54
2023/06/27 03:42:21;;;;;;;7.55;3.15;;;;;;;;;;5062608;28;20243;-54
2023/06/27 03:44:48;;;;;;;4.97;3.17;;;;;;;;;;5064237;28;20605;-53
2023/06/27 03:47:14;;;;;;;7.85;2.75;;;;;;;;;;5066687;28;20234;-53
2023/06/27 03:49:41;;;;;;;9.25;3.75;;;;;;;;;;5066114;28;20241;-52
2023/06/27 03:52:08;;;;;;;7.72;3.60;;;;;;;;;;5060621;28;20250;-53
2023/06/27 03:54:35;;;;;;;11.50;4.03;;;;;;;;;;5059272;28;20326;-52
2023/06/27 03:57:01;;;;;;;8.00;3.80;;;;;;;;;;5066159;28;20237;-53
2023/06/27 03:59:29;;;;;;;5.57;3.10;;;;;;;;;;5061959;28;20309;-53
2023/06/27 04:01:56;;;;;;;7.20;3.47;;;;;;;;;;5062049;28;20254;-54
2023/06/27 04:04:22;;;;;;;7.93;3.80;;;;;;;;;;5062491;28;20305;-53
2023/06/27 04:06:49;;;;;;;8.52;3.20;;;;;;;;;;5066944;28;20231;-55
2023/06/27 04:09:15;;;;;;;7.05;2.95;;;;;;;;;;5061801;28;20232;-53
2023/06/27 04:11:42;;;;;;;11.05;3.97;;;;;;;;;;5066575;28;20238;-54
2023/06/27 04:14:09;;;;;;;9.80;4.68;;;;;;;;;;5064684;28;20227;-52
2023/06/27 04:16:37;;;;;;;5.95;3.45;;;;;;;;;;5062977;28;20231;-53
2023/06/27 04:19:03;;;;;;;5.53;4.13;;;;;;;;;;5060679;28;20244;-53
2023/06/27 04:21:30;;;;;;;9.15;3.67;;;;;;;;;;5060382;28;20697;-53
2023/06/27 04:23:57;;;;;;;6.20;3.72;;;;;;;;;;5059677;28;21768;-52
2023/06/27 04:26:25;;;;;;;5.68;3.33;;;;;;;;;;5063317;28;20219;-54
2023/06/27 04:28:51;;;;;;;11.05;3.90;;;;;;;;;;5060771;28;20322;-52
2023/06/27 04:31:18;;;;;;;7.55;3.78;;;;;;;;;;5064423;28;20313;-53
2023/06/27 04:33:47;;;;;;;7.43;2.95;;;;;;;;;;5064474;28;20246;-54
2023/06/27 04:36:15;;;;;;;5.93;3.95;;;;;;;;;;5021126;28;1153128;-53
2023/06/27 04:38:43;;;;;;;7.80;3.60;;;;;;;;;;5065504;28;20262;-52
2023/06/27 04:41:11;;;;;;;14.65;4.28;;;;;;;;;;5063388;28;20241;-52
2023/06/27 04:43:39;;;;;;;8.63;4.00;;;;;;;;;;5059764;28;20239;-57
2023/06/27 04:46:06;;;;;;;11.43;3.30;;;;;;;;;;5060436;28;20231;-53
2023/06/27 04:48:32;;;;;;;11.40;3.80;;;;;;;;;;5063387;28;20241;-53
2023/06/27 04:51:00;;;;;;;6.45;3.22;;;;;;;;;;5064001;28;20752;-53
2023/06/27 04:53:27;;;;;;;6.00;3.35;;;;;;;;;;5061097;28;22750;-53
2023/06/27 04:55:54;;;;;;;8.57;3.55;;;;;;;;;;5060410;28;20234;-53
2023/06/27 04:58:21;;;;;;;8.30;3.50;;;;;;;;;;5061230;28;20323;-52
2023/06/27 05:00:48;;;;;;;7.97;2.80;;;;;;;;;;5056948;28;20607;-53
2023/06/27 05:03:15;;;;;;;8.68;3.63;;;;;;;;;;5059572;28;20243;-53
2023/06/27 05:05:41;;;;;;;9.05;4.30;;;;;;;;;;5060867;28;20231;-52
2023/06/27 05:08:10;;;;;;;6.07;3.17;;;;;;;;;;5059289;28;20233;-53
2023/06/27 05:10:37;;;;;;;8.43;3.58;;;;;;;;;;5061437;28;20320;-52
2023/06/27 05:13:04;;;;;;;8.43;3.17;;;;;;;;;;5062404;28;20251;-53
2023/06/27 05:15:30;;;;;;;5.82;2.90;;;;;;;;;;5059621;28;20971;-53
2023/06/27 05:18:13;;;;;;;7.97;3.58;;;;;;;;;;5063667;28;20289;-52
2023/06/27 05:20:40;;;;;;;6.05;3.67;;;;;;;;;;5058265;28;20254;-52
2023/06/27 05:23:07;;;;;;;8.15;3.55;;;;;;;;;;5061702;28;20238;-53
2023/06/27 05:25:35;;;;;;;10.30;3.65;;;;;;;;;;5061331;28;20227;-53
2023/06/27 05:28:02;;;;;;;10.02;3.90;;;;;;;;;;5056768;28;20243;-53
2023/06/27 05:30:29;;;;;;;8.27;3.28;;;;;;;;;;5062502;28;20235;-52
2023/06/27 05:32:55;;;;;;;8.80;4.15;;;;;;;;;;5063926;28;20780;-53
2023/06/27 05:35:22;;;;;;;7.05;3.78;;;;;;;;;;5064609;28;20227;-53
2023/06/27 05:37:49;;;;;;;6.82;3.35;;;;;;;;;;5064541;28;20896;-52
2023/06/27 05:40:15;;;;;;;11.60;3.72;;;;;;;;;;5061295;28;20439;-52
2023/06/27 05:42:43;;;;;;;8.68;3.00;;;;;;;;;;5055289;28;20234;-52
2023/06/27 05:45:11;;;;;;;4.88;3.83;;;;;;;;;;5059255;28;20283;-52
2023/06/27 05:47:37;;;;;;;9.45;3.63;;;;;;;;;;5063917;28;20861;-53
2023/06/27 05:50:04;;;;;;;7.53;3.28;;;;;;;;;;5061305;28;20284;-53
2023/06/27 05:52:31;;;;;;;10.43;3.50;;;;;;;;;;5075424;28;20657;-53
2023/06/27 05:54:58;;;;;;;4.60;2.97;;;;;;;;;;5067802;28;20735;-52
2023/06/27 05:57:25;;;;;;;9.23;3.53;;;;;;;;;;5058267;28;20780;-52
2023/06/27 05:59:53;;;;;;;8.27;3.05;;;;;;;;;;5058160;28;20247;-52
2023/06/27 06:02:20;;;;;;;7.72;3.17;;;;;;;;;;5055787;28;20239;-53
2023/06/27 06:04:46;;;;;;;5.95;2.72;;;;;;;;;;5056604;28;20258;-53
2023/06/27 06:07:14;;;;;;;12.05;3.38;;;;;;;;;;5060746;28;20292;-53
2023/06/27 06:09:40;;;;;;;8.70;2.88;;;;;;;;;;5073472;28;20778;-52
2023/06/27 06:12:07;;;;;;;13.10;3.35;;;;;;;;;;5076072;28;20230;-52
2023/06/27 06:14:34;;;;;;;10.32;3.70;;;;;;;;;;5074771;28;20238;-52
2023/06/27 06:17:01;;;;;;;5.00;2.67;;;;;;;;;;5074303;28;20235;-53
2023/06/27 06:19:28;;;;;;;12.52;2.70;;;;;;;;;;5064973;28;20243;-53
2023/06/27 06:21:55;;;;;;;4.63;2.78;;;;;;;;;;5060319;28;20273;-53
2023/06/27 06:24:22;;;;;;;6.47;3.55;;;;;;;;;;5063243;28;20230;-53
2023/06/27 06:26:48;;;;;;;4.60;2.45;;;;;;;;;;5063067;28;20226;-52
2023/06/27 06:29:15;;;;;;;7.40;3.10;;;;;;;;;;5065073;28;20301;-53
2023/06/27 06:31:42;;;;;;;5.60;2.38;;;;;;;;;;5061295;28;20644;-53
2023/06/27 06:34:10;;;;;;;7.60;3.30;;;;;;;;;;5062436;28;20631;-52
2023/06/27 06:36:36;;;;;;;7.78;3.13;;;;;;;;;;5057898;28;20615;-54
2023/06/27 06:39:03;;;;;;;12.35;3.33;;;;;;;;;;5059859;28;20231;-53
2023/06/27 06:41:30;;;;;;;6.13;2.25;;;;;;;;;;5060158;28;20262;-52
2023/06/27 06:43:57;;;;;;;6.32;2.33;;;;;;;;;;5067458;28;20242;-53
2023/06/27 06:46:24;;;;;;;5.22;2.38;;;;;;;;;;5062375;28;20915;-53
2023/06/27 06:48:51;;;;;;;9.05;2.92;;;;;;;;;;5062165;28;20696;-53
2023/06/27 06:51:19;;;;;;;6.00;2.83;;;;;;;;;;5066892;28;20288;-53
2023/06/27 06:53:46;;;;;;;4.85;3.30;;;;;;;;;;5062873;28;20227;-54
2023/06/27 06:56:13;;;;;;;5.63;3.03;;;;;;;;;;5061863;28;20238;-53
2023/06/27 06:58:39;;;;;;;4.85;2.63;;;;;;;;;;5058039;28;20333;-54
2023/06/27 07:01:06;;;;;;;7.38;2.97;;;;;;;;;;5063569;28;20823;-53
2023/06/27 07:03:33;;;;;;;6.50;2.60;;;;;;;;;;5060785;28;20818;-54
2023/06/27 07:06:00;;;;;;;9.10;2.47;;;;;;;;;;5061651;28;20234;-53
2023/06/27 07:08:28;;;;;;;4.13;2.05;;;;;;;;;;5061569;28;20285;-52
2023/06/27 07:10:55;;;;;;;4.63;2.50;;;;;;;;;;5061036;28;20254;-52
2023/06/27 07:13:21;;;;;;;6.53;2.47;;;;;;;;;;5064537;28;20247;-53
2023/06/27 07:15:48;;;;;;;3.72;1.80;;;;;;;;;;5064974;28;20288;-53
2023/06/27 07:18:15;;;;;;;7.72;2.08;;;;;;;;;;5060271;28;20257;-53
2023/06/27 07:20:44;;;;;;;8.00;2.15;;;;;;;;;;5052416;28;20235;-53
2023/06/27 07:23:11;;;;;;;4.78;2.58;;;;;;;;;;5063315;28;20234;-53
2023/06/27 07:25:39;;;;;;;5.55;1.77;;;;;;;;;;5061572;28;20235;-53
2023/06/27 07:28:05;;;;;;;4.50;1.85;;;;;;;;;;5073973;28;20234;-53
2023/06/27 07:30:32;;;;;;;5.90;2.58;;;;;;;;;;5066568;28;20235;-53
2023/06/27 07:32:59;;;;;;;5.10;2.03;;;;;;;;;;5070173;28;21096;-53
2023/06/27 07:35:28;;;;;;;4.80;1.67;;;;;;;;;;5060153;28;20223;-52
2023/06/27 07:37:55;;;;;;;6.65;3.50;;;;;;;;;;5077447;28;20263;-54
2023/06/27 07:40:22;;;;;;;5.03;1.75;;;;;;;;;;5072229;28;20238;-53
2023/06/27 07:42:50;;;;;;;4.68;2.00;;;;;;;;;;5073895;28;20732;-53
2023/06/27 07:45:16;;;;;;;11.77;3.17;;;;;;;;;;5073506;28;20227;-53
2023/06/27 07:47:43;;;;;;;8.93;2.50;;;;;;;;;;5068312;28;20242;-53
2023/06/27 07:50:10;;;;;;;9.13;2.72;;;;;;;;;;5065979;28;20245;-57
2023/06/27 07:52:36;;;;;;;6.03;1.92;;;;;;;;;;5064620;28;20239;-52
2023/06/27 07:55:03;;;;;;;6.22;2.70;;;;;;;;;;5065165;28;20311;-53
2023/06/27 07:57:29;;;;;;;11.63;2.30;;;;;;;;;;5060324;28;20236;-53
2023/06/27 07:59:57;;;;;;;7.57;1.98;;;;;;;;;;5064133;28;20237;-53
2023/06/27 08:02:23;;;;;;;6.10;1.70;;;;;;;;;;5070611;28;20226;-53
2023/06/27 08:04:50;;;;;;;7.43;1.50;;;;;;;;;;5073299;28;20776;-53
2023/06/27 08:07:16;;;;;;;5.18;2.10;;;;;;;;;;5071773;28;20244;-54
2023/06/27 08:09:42;;;;;;;3.30;1.50;;;;;;;;;;5066625;28;20690;-56
2023/06/27 08:12:10;;;;;;;4.53;1.63;;;;;;;;;;5076810;28;20234;-53
2023/06/27 08:14:36;;;;;;;10.40;2.50;;;;;;;;;;5074970;28;20253;-54
2023/06/27 08:17:04;;;;;;;3.28;1.58;;;;;;;;;;5076324;28;20234;-54
2023/06/27 08:19:30;;;;;;;3.22;1.55;;;;;;;;;;5075307;28;20231;-54
2023/06/27 08:21:57;;;;;;;3.10;1.98;;;;;;;;;;5082205;28;20237;-54
2023/06/27 08:24:23;;;;;;;6.00;1.77;;;;;;;;;;5075111;28;20313;-53
2023/06/27 08:26:52;;;;;;;5.35;2.13;;;;;;;;;;5065731;28;20651;-54
2023/06/27 08:29:18;;;;;;;5.63;2.13;;;;;;;;;;5066004;28;20238;-55
2023/06/27 08:31:46;;;;;;;5.32;2.13;;;;;;;;;;5071391;28;20595;-54
2023/06/27 08:34:14;;;;;;;5.22;1.60;;;;;;;;;;5076836;28;20234;-53
2023/06/27 08:36:40;;;;;;;12.68;3.30;;;;;;;;;;5063713;28;20285;-54
2023/06/27 08:39:07;;;;;;;2.45;1.40;;;;;;;;;;5063333;28;20322;-53
2023/06/27 08:41:33;;;;;;;4.15;2.10;;;;;;;;;;5064948;28;20723;-52
2023/06/27 08:44:00;;;;;;;3.63;1.25;;;;;;;;;;5060576;28;23265;-53
2023/06/27 08:46:28;;;;;;;6.32;1.98;;;;;;;;;;5067557;28;20701;-53
2023/06/27 08:48:56;;;;;;;5.93;2.03;;;;;;;;;;5069293;28;20285;-53
2023/06/27 08:51:25;;;;;;;2.97;1.63;;;;;;;;;;5064399;28;20348;-53
2023/06/27 08:53:58;;;;;;;2.22;1.50;;;;;;;;;;5071216;28;20266;-54
2023/06/27 08:56:26;;;;;;;2.88;1.48;;;;;;;;;;5063465;28;20239;-53
2023/06/27 08:58:56;;;;;;;3.92;1.60;;;;;;;;;;5082644;28;20297;-52
2023/06/27 09:01:23;;;;;;;5.88;1.92;;;;;;;;;;5072573;28;20238;-53
2023/06/27 09:03:50;;;;;;;2.90;1.67;;;;;;;;;;5073773;28;20259;-52
2023/06/27 09:06:18;;;;;;;5.40;1.80;;;;;;;;;;5074529;28;20887;-53
2023/06/27 09:08:46;;;;;;;8.43;2.65;;;;;;;;;;5064625;28;20245;-52
2023/06/27 09:11:12;;;;;;;6.78;2.00;;;;;;;;;;5064310;28;20239;-53
2023/06/27 09:13:39;;;;;;;8.32;2.88;;;;;;;;;;5069210;28;20235;-57
2023/06/27 09:16:06;;;;;;;1.85;1.00;;;;;;;;;;5063981;28;20230;-58
2023/06/27 09:18:35;;;;;;;5.47;1.15;;;;;;;;;;5065706;28;20746;-56
2023/06/27 09:21:02;;;;;;;2.85;1.00;;;;;;;;;;5064472;28;20334;-57
2023/06/27 09:23:29;;;;;;;2.33;1.30;;;;;;;;;;5067287;28;20783;-54
2023/06/27 09:26:10;;;;;;;3.33;2.05;;;;;;;;;;5067428;28;20235;-55
2023/06/27 09:28:47;;;;;;;1.83;1.48;;;;;;;;;;5064372;28;20235;-56
2023/06/27 09:31:14;;;;;;;4.72;2.22;;;;;;;;;;5058837;28;20321;-55
2023/06/27 09:33:40;;;;;;;2.88;2.17;;;;;;;;;;5064809;28;20247;-56
2023/06/27 09:36:07;;;;;;;2.47;1.88;;;;;;;;;;5063190;28;20309;-56
2023/06/27 09:38:33;;;;;;;4.63;2.83;;;;;;;;;;5066144;28;20231;-56
2023/06/27 09:41:04;;;;;;;6.32;3.42;;;;;;;;;;5066050;28;20238;-54
2023/06/27 09:43:35;;;;;;;4.28;3.78;;;;;;;;;;5063817;28;20556;-54
2023/06/27 09:46:02;;;;;;;3.10;2.35;;;;;;;;;;5063043;28;20296;-54
2023/06/27 09:48:29;;;;;;;3.92;2.28;;;;;;;;;;5062804;28;20267;-53
2023/06/27 09:50:59;;;;;;;5.20;3.17;;;;;;;;;;5059447;28;20237;-53
2023/06/27 09:53:25;;;;;;;3.47;2.72;;;;;;;;;;5067207;28;20242;-52
2023/06/27 09:55:56;;;;;;;2.28;2.03;;;;;;;;;;5065810;28;20235;-53
2023/06/27 09:58:26;;;;;;;1.75;1.65;;;;;;;;;;5066526;28;20248;-53
2023/06/27 10:00:54;;;;;;;3.35;2.10;;;;;;;;;;5063684;28;20243;-54
2023/06/27 10:03:21;;;;;;;3.45;2.50;;;;;;;;;;5068996;28;20238;-53
2023/06/27 10:05:47;;;;;;;5.00;2.17;;;;;;;;;;5065806;28;20446;-54
2023/06/27 10:08:14;;;;;;;2.38;2.00;;;;;;;;;;5064788;28;20231;-54
2023/06/27 10:10:40;;;;;;;1.70;1.52;;;;;;;;;;5064796;28;20768;-52
2023/06/27 10:13:08;;;;;;;2.50;1.98;;;;;;;;;;5069645;28;20317;-54
2023/06/27 10:15:35;;;;;;;3.85;1.88;;;;;;;;;;5060267;28;20334;-53
2023/06/27 10:18:03;;;;;;;3.22;1.98;;;;;;;;;;5061967;28;20778;-53
2023/06/27 10:20:30;;;;;;;3.65;1.83;;;;;;;;;;5063195;28;20310;-54
2023/06/27 10:22:58;;;;;;;2.83;1.90;;;;;;;;;;5062841;28;20235;-53
2023/06/27 10:25:26;;;;;;;2.95;1.92;;;;;;;;;;5059425;28;20335;-53
2023/06/27 10:28:04;;;;;;;2.97;1.65;;;;;;;;;;5061784;28;20940;-54
2023/06/27 10:30:32;;;;;;;3.40;1.85;;;;;;;;;;5067570;28;20235;-53
2023/06/27 10:33:09;;;;;;;7.72;2.17;;;;;;;;;;5066925;28;20338;-54
2023/06/27 10:35:39;;;;;;;6.18;1.63;;;;;;;;;;5058579;28;20226;-54
2023/06/27 10:38:06;;;;;;;3.63;1.60;;;;;;;;;;5062705;28;20315;-53
2023/06/27 10:40:47;;;;;;;4.97;2.00;;;;;;;;;;5063910;28;20238;-53
2023/06/27 10:43:35;;;;;;;9.73;3.05;;;;;;;;;;5058162;28;20307;-55
2023/06/27 10:46:08;;;;;;;5.00;1.95;;;;;;;;;;5062473;28;21290;-56
2023/06/27 10:48:36;;;;;;;10.10;2.83;;;;;;;;;;5063626;28;20247;-54
2023/06/27 10:51:10;;;;;;;2.63;1.55;;;;;;;;;;5061280;28;20262;-54
2023/06/27 10:53:40;;;;;;;1.52;1.42;;;;;;;;;;5039835;28;20232;-54
2023/06/27 10:56:16;;;;;;;2.42;2.17;;;;;;;;;;5044991;28;20753;-52
2023/06/27 10:58:46;;;;;;;2.00;1.73;;;;;;;;;;5056780;28;20310;-53
2023/06/27 11:01:13;;;;;;;5.45;1.85;;;;;;;;;;5062667;28;20231;-53
2023/06/27 11:03:42;;;;;;;2.03;1.60;;;;;;;;;;5064317;28;20231;-52
2023/06/27 11:06:09;;;;;;;3.90;3.25;;;;;;;;;;5068039;28;20231;-51
2023/06/27 11:08:35;;;;;;;3.08;2.88;;;;;;;;;;5066170;28;20268;-52
2023/06/27 11:11:03;;;;;;;3.00;2.60;;;;;;;;;;5064416;28;20246;-52
2023/06/27 11:13:31;;;;;;;3.22;2.15;;;;;;;;;;5061283;28;20660;-51
2023/06/27 11:15:57;;;;;;;3.63;2.97;;;;;;;;;;5062609;28;20740;-53
2023/06/27 11:18:25;;;;;;;5.38;2.78;;;;;;;;;;5064976;28;20223;-53
2023/06/27 11:20:54;;;;;;;3.03;2.20;;;;;;;;;;5065552;28;20243;-55
2023/06/27 11:23:21;;;;;;;3.83;1.83;;;;;;;;;;5066888;28;20318;-55
2023/06/27 11:25:48;;;;;;;3.42;1.75;;;;;;;;;;5063517;28;20231;-58
2023/06/27 11:28:17;;;;;;;2.38;2.17;;;;;;;;;;5066764;28;20242;-58
2023/06/27 11:30:43;;;;;;;1.98;1.83;;;;;;;;;;5065606;28;20263;-61
2023/06/27 11:33:11;;;;;;;3.83;2.17;;;;;;;;;;5069793;28;20259;-61
2023/06/27 11:35:40;;;;;;;4.70;1.90;;;;;;;;;;5051894;28;20275;-61
2023/06/27 11:38:08;;;;;;;3.05;1.90;;;;;;;;;;5049341;28;20629;-62
2023/06/27 11:40:34;;;;;;;3.75;3.40;;;;;;;;;;5050579;28;20338;-59
2023/06/27 11:43:02;;;;;;;4.80;1.45;;;;;;;;;;5046351;28;20817;-60
2023/06/27 11:45:28;;;;;;;1.65;1.50;;;;;;;;;;5052073;28;20224;-59
2023/06/27 11:47:55;;;;;;;3.17;1.70;;;;;;;;;;5045878;28;20230;-60
2023/06/27 11:50:22;;;;;;;1.77;1.40;;;;;;;;;;5045592;28;20227;-58
2023/06/27 11:52:49;;;;;;;4.07;1.30;;;;;;;;;;5056163;28;20235;-59
2023/06/27 11:55:17;;;;;;;2.35;1.10;;;;;;;;;;5045119;28;20232;-56
2023/06/27 11:57:44;;;;;;;3.10;1.25;;;;;;;;;;5041074;28;20236;-61
2023/06/27 12:00:14;;;;;;;1.42;1.02;;;;;;;;;;5044747;28;20702;-54
2023/06/27 12:02:41;;;;;;;2.95;1.00;;;;;;;;;;5039886;28;20706;-55
2023/06/27 12:05:12;;;;;;;4.10;1.55;;;;;;;;;;5046476;28;20492;-54
2023/06/27 12:07:38;;;;;;;3.85;1.63;;;;;;;;;;5045247;28;20232;-54
2023/06/27 12:10:05;;;;;;;2.40;1.45;;;;;;;;;;5045985;28;20668;-53
2023/06/27 12:12:38;;;;;;;1.35;0.93;;;;;;;;;;5044333;28;20771;-54
2023/06/27 12:15:15;;;;;;;1.88;0.85;;;;;;;;;;5043780;28;20256;-52
2023/06/27 12:17:55;;;;;;;1.23;0.73;;;;;;;;;;5045684;28;20245;-53
2023/06/27 12:20:21;;;;;;;0.73;0.70;;;;;;;;;;5043558;28;20334;-53
2023/06/27 12:22:47;;;;;;;0.68;0.68;;;;;;;;;;5047297;28;20330;-52
2023/06/27 12:25:14;;;;;;;0.70;0.70;;;;;;;;;;5043127;28;20461;-54
2023/06/27 12:27:42;;;;;;;3.17;0.90;;;;;;;;;;5044925;28;20247;-53
2023/06/27 12:30:10;;;;;;;0.85;0.80;;;;;;;;;;5048990;28;20282;-52
2023/06/27 12:32:37;;;;;;;5.47;1.02;;;;;;;;;;5051941;28;20246;-53
2023/06/27 12:35:04;;;;;;;1.27;0.90;;;;;;;;;;5045549;28;20243;-53
2023/06/27 12:37:33;;;;;;;1.67;0.80;;;;;;;;;;5050990;28;20242;-53
2023/06/27 12:40:00;;;;;;;1.40;0.77;;;;;;;;;;5068198;28;20284;-55
2023/06/27 12:42:26;;;;;;;3.00;0.80;;;;;;;;;;5054668;28;20251;-53
2023/06/27 12:44:55;;;;;;;1.42;1.10;;;;;;;;;;5057710;28;20228;-52
2023/06/27 12:47:22;;;;;;;2.58;1.02;;;;;;;;;;5044528;28;20315;-53
2023/06/27 12:49:48;;;;;;;1.30;1.20;;;;;;;;;;5046608;28;20246;-59
2023/06/27 12:52:14;;;;;;;1.75;1.02;;;;;;;;;;5034786;28;20242;-53
2023/06/27 12:54:41;;;;;;;2.97;1.20;;;;;;;;;;5044851;28;20242;-52
2023/06/27 12:57:07;;;;;;;1.90;1.13;;;;;;;;;;5049378;28;20238;-52
2023/06/27 12:59:34;;;;;;;2.20;1.50;;;;;;;;;;5043943;28;20239;-53
2023/06/27 13:02:02;;;;;;;2.00;1.25;;;;;;;;;;5042569;28;20298;-53
2023/06/27 13:04:29;;;;;;;1.30;1.20;;;;;;;;;;5041230;28;20379;-53
2023/06/27 13:06:56;;;;;;;4.00;1.02;;;;;;;;;;5043368;28;20240;-54
2023/06/27 13:09:22;;;;;;;1.20;0.90;;;;;;;;;;5047630;28;20228;-52
2023/06/27 13:11:49;;;;;;;1.48;1.20;;;;;;;;;;5045391;28;20646;-54
2023/06/27 13:14:15;;;;;;;1.25;0.98;;;;;;;;;;5046258;28;20258;-53
2023/06/27 13:16:41;;;;;;;2.67;1.00;;;;;;;;;;5044668;28;20246;-53
2023/06/27 13:19:10;;;;;;;1.55;1.17;;;;;;;;;;5040036;28;20247;-54
2023/06/27 13:21:37;;;;;;;1.40;1.00;;;;;;;;;;5043256;28;20244;-51
2023/06/27 13:24:04;;;;;;;1.73;1.23;;;;;;;;;;5048615;28;20239;-53
2023/06/27 13:26:30;;;;;;;2.17;1.00;;;;;;;;;;5041794;28;20318;-53
2023/06/27 13:28:57;;;;;;;1.90;1.13;;;;;;;;;;5044955;28;20293;-52
2023/06/27 13:31:23;;;;;;;2.88;1.05;;;;;;;;;;5044295;28;20239;-53
2023/06/27 13:33:51;;;;;;;2.10;0.80;;;;;;;;;;5040976;28;20717;-52
2023/06/27 13:36:19;;;;;;;2.65;1.20;;;;;;;;;;5040985;28;20232;-52
2023/06/27 13:38:45;;;;;;;1.48;1.30;;;;;;;;;;5047653;28;20237;-53
2023/06/27 13:41:12;;;;;;;1.77;0.93;;;;;;;;;;5043527;28;20248;-52
2023/06/27 13:43:38;;;;;;;1.17;1.13;;;;;;;;;;5035330;28;20290;-53
2023/06/27 13:46:04;;;;;;;0.95;0.90;;;;;;;;;;5038937;28;20301;-52
2023/06/27 13:48:31;;;;;;;2.85;1.00;;;;;;;;;;5045955;28;20228;-53
2023/06/27 13:50:59;;;;;;;1.17;1.08;;;;;;;;;;5043223;28;20244;-53
2023/06/27 13:53:26;;;;;;;1.45;1.20;;;;;;;;;;5045436;28;20313;-58
2023/06/27 13:55:53;;;;;;;3.40;1.42;;;;;;;;;;5047508;28;20641;-59
2023/06/27 13:58:19;;;;;;;3.38;1.23;;;;;;;;;;5043000;28;20856;-57
2023/06/27 14:00:47;;;;;;;1.40;1.30;;;;;;;;;;5044114;28;20233;-57
2023/06/27 14:03:14;;;;;;;2.50;1.35;;;;;;;;;;5044088;28;20232;-63
2023/06/27 14:05:40;;;;;;;2.25;1.90;;;;;;;;;;5046229;28;20321;-55
2023/06/27 14:08:07;;;;;;;2.63;1.65;;;;;;;;;;5044825;28;20317;-55
2023/06/27 14:10:35;;;;;;;2.22;1.80;;;;;;;;;;5044467;28;20234;-54
2023/06/27 14:13:02;;;;;;;2.30;1.60;;;;;;;;;;5037731;28;20247;-55
2023/06/27 14:15:29;;;;;;;3.67;1.45;;;;;;;;;;5036837;28;20893;-53
2023/06/27 14:17:56;;;;;;;1.50;1.40;;;;;;;;;;5043915;28;20653;-54
2023/06/27 14:20:23;;;;;;;1.35;1.25;;;;;;;;;;5042537;28;20228;-53
2023/06/27 14:22:49;;;;;;;1.58;1.48;;;;;;;;;;5041547;28;20266;-54
2023/06/27 14:25:16;;;;;;;4.28;1.55;;;;;;;;;;5047328;28;20252;-52
2023/06/27 14:27:44;;;;;;;2.85;1.13;;;;;;;;;;5044421;28;20227;-54
2023/06/27 14:30:10;;;;;;;1.73;1.30;;;;;;;;;;5049627;28;20236;-53
2023/06/27 14:32:37;;;;;;;2.80;1.30;;;;;;;;;;5054788;28;20244;-52
2023/06/27 14:35:03;;;;;;;2.88;1.90;;;;;;;;;;5056355;28;20900;-54
2023/06/27 14:37:30;;;;;;;2.90;1.48;;;;;;;;;;5044254;28;20232;-53
2023/06/27 14:39:57;;;;;;;1.63;0.90;;;;;;;;;;5058186;28;20239;-52
2023/06/27 14:42:24;;;;;;;5.13;3.33;;;;;;;;;;5046563;28;20322;-54
2023/06/27 14:44:51;;;;;;;4.05;1.85;;;;;;;;;;5043753;28;20254;-54